Cacequi, Brazil
Current Conditions -  °F | °C
As of 11:00 AM on Monday 22 Dec 2014 (Local Time) from SBSM Reporting Station
Few Clouds Few Clouds  
Wind Chill: 68°   Ceiling: Unl
Heat Index: 68°   Visibility: 6mi
Dew Point: 55°   Wind: 6mph
Humidity: 64%   Direction: 170°S
Pressure: 29.97"   Gusts: NA
Location:  29.88°S, 54.82°W
Report Text: SBSM 221300Z 17005KT 080V220 9999 FEW022 20/13 Q1015
Loading
Personal Weather Stations






























Interactive Weather Map New forecast layout! Learn more

10-Day Weather Forecast

Advertisements
Track Severe Weather on mobile